sensor_id;sensor_type;location;lat;lon;timestamp;temperature;humidity
4052;DHT22;2040;50.924;11.604;2024-01-10T00:01:16;-11.80;99.90
4052;DHT22;2040;50.924;11.604;2024-01-10T00:03:42;-11.70;99.90
4052;DHT22;2040;50.924;11.604;2024-01-10T00:06:08;-11.70;99.90
4052;DHT22;2040;50.924;11.604;2024-01-10T00:08:33;-11.70;99.90
4052;DHT22;2040;50.924;11.604;2024-01-10T00:10:59;-11.80;99.90
4052;DHT22;2040;50.924;11.604;2024-01-10T00:13:24;-12.00;99.90
4052;DHT22;2040;50.924;11.604;2024-01-10T00:15:50;-12.30;99.90
4052;DHT22;2040;50.924;11.604;2024-01-10T00:18:15;-12.30;99.90
4052;DHT22;2040;50.924;11.604;2024-01-10T00:20:41;-12.50;99.90
4052;DHT22;2040;50.924;11.604;2024-01-10T00:23:06;-12.60;99.90
4052;DHT22;2040;50.924;11.604;2024-01-10T00:25:32;-12.70;99.90
4052;DHT22;2040;50.924;11.604;2024-01-10T00:28:00;-12.70;99.90
4052;DHT22;2040;50.924;11.604;2024-01-10T00:30:26;-12.70;99.90
4052;DHT22;2040;50.924;11.604;2024-01-10T00:32:51;-12.60;99.90
4052;DHT22;2040;50.924;11.604;2024-01-10T00:35:17;-12.70;99.90
4052;DHT22;2040;50.924;11.604;2024-01-10T00:37:42;-12.70;99.90
4052;DHT22;2040;50.924;11.604;2024-01-10T00:40:08;-12.70;99.90
4052;DHT22;2040;50.924;11.604;2024-01-10T00:42:34;-12.60;99.90
4052;DHT22;2040;50.924;11.604;2024-01-10T00:45:00;-12.50;99.90
4052;DHT22;2040;50.924;11.604;2024-01-10T00:47:25;-12.50;99.90
4052;DHT22;2040;50.924;11.604;2024-01-10T00:49:51;-12.50;99.90
4052;DHT22;2040;50.924;11.604;2024-01-10T00:52:16;-12.50;99.90
4052;DHT22;2040;50.924;11.604;2024-01-10T00:54:42;-12.40;99.90
4052;DHT22;2040;50.924;11.604;2024-01-10T00:57:09;-12.20;99.90
4052;DHT22;2040;50.924;11.604;2024-01-10T00:59:35;-12.30;99.90
4052;DHT22;2040;50.924;11.604;2024-01-10T01:02:00;-12.40;99.90
4052;DHT22;2040;50.924;11.604;2024-01-10T01:04:26;-12.50;99.90
4052;DHT22;2040;50.924;11.604;2024-01-10T01:06:51;-12.60;99.90
4052;DHT22;2040;50.924;11.604;2024-01-10T01:09:17;-12.60;99.90
4052;DHT22;2040;50.924;11.604;2024-01-10T01:11:43;-12.70;99.90
4052;DHT22;2040;50.924;11.604;2024-01-10T01:14:08;-12.70;99.90
4052;DHT22;2040;50.924;11.604;2024-01-10T01:16:34;-12.70;99.90
4052;DHT22;2040;50.924;11.604;2024-01-10T01:18:59;-12.70;99.90
4052;DHT22;2040;50.924;11.604;2024-01-10T01:21:25;-12.60;99.90
4052;DHT22;2040;50.924;11.604;2024-01-10T01:23:51;-12.50;99.90
4052;DHT22;2040;50.924;11.604;2024-01-10T01:26:16;-12.40;99.90
4052;DHT22;2040;50.924;11.604;2024-01-10T01:28:42;-12.40;99.90
4052;DHT22;2040;50.924;11.604;2024-01-10T01:31:07;-12.40;99.90
4052;DHT22;2040;50.924;11.604;2024-01-10T01:33:33;-12.50;99.90
4052;DHT22;2040;50.924;11.604;2024-01-10T01:35:58;-12.60;99.90
4052;DHT22;2040;50.924;11.604;2024-01-10T01:38:24;-12.70;99.90
4052;DHT22;2040;50.924;11.604;2024-01-10T01:40:49;-12.60;99.90
4052;DHT22;2040;50.924;11.604;2024-01-10T01:43:19;-12.50;99.90
4052;DHT22;2040;50.924;11.604;2024-01-10T01:45:45;-12.50;99.90
4052;DHT22;2040;50.924;11.604;2024-01-10T01:48:11;-12.20;99.90
4052;DHT22;2040;50.924;11.604;2024-01-10T01:50:37;-12.40;99.90
4052;DHT22;2040;50.924;11.604;2024-01-10T01:53:03;-12.20;99.90
4052;DHT22;2040;50.924;11.604;2024-01-10T01:55:28;-12.00;99.90
4052;DHT22;2040;50.924;11.604;2024-01-10T01:57:55;-12.20;99.90
4052;DHT22;2040;50.924;11.604;2024-01-10T02:00:20;-12.30;99.90
4052;DHT22;2040;50.924;11.604;2024-01-10T02:02:48;-12.30;99.90
4052;DHT22;2040;50.924;11.604;2024-01-10T02:05:14;-12.50;99.90
4052;DHT22;2040;50.924;11.604;2024-01-10T02:07:40;-12.60;99.90
4052;DHT22;2040;50.924;11.604;2024-01-10T02:10:06;-12.60;99.90
4052;DHT22;2040;50.924;11.604;2024-01-10T02:12:32;-12.50;99.90
4052;DHT22;2040;50.924;11.604;2024-01-10T02:14:58;-12.60;99.90
4052;DHT22;2040;50.924;11.604;2024-01-10T02:17:24;-12.70;99.90
4052;DHT22;2040;50.924;11.604;2024-01-10T02:19:50;-12.70;99.90
4052;DHT22;2040;50.924;11.604;2024-01-10T02:22:15;-12.70;99.90
4052;DHT22;2040;50.924;11.604;2024-01-10T02:24:41;-12.70;99.90
4052;DHT22;2040;50.924;11.604;2024-01-10T02:27:07;-12.80;99.90
4052;DHT22;2040;50.924;11.604;2024-01-10T02:29:34;-12.90;99.90
4052;DHT22;2040;50.924;11.604;2024-01-10T02:31:59;-12.90;99.90
4052;DHT22;2040;50.924;11.604;2024-01-10T02:34:25;-12.90;99.90
4052;DHT22;2040;50.924;11.604;2024-01-10T02:36:50;-12.90;99.90
4052;DHT22;2040;50.924;11.604;2024-01-10T02:39:16;-12.90;99.90
4052;DHT22;2040;50.924;11.604;2024-01-10T02:41:41;-12.90;99.90
4052;DHT22;2040;50.924;11.604;2024-01-10T02:44:07;-12.60;99.90
4052;DHT22;2040;50.924;11.604;2024-01-10T02:46:32;-12.10;99.90
4052;DHT22;2040;50.924;11.604;2024-01-10T02:48:58;-12.10;99.90
4052;DHT22;2040;50.924;11.604;2024-01-10T02:51:26;-12.20;99.90
4052;DHT22;2040;50.924;11.604;2024-01-10T02:53:52;-12.20;99.90
4052;DHT22;2040;50.924;11.604;2024-01-10T02:56:17;-12.20;99.90
4052;DHT22;2040;50.924;11.604;2024-01-10T02:58:43;-12.20;99.90
4052;DHT22;2040;50.924;11.604;2024-01-10T03:01:08;-12.20;99.90
4052;DHT22;2040;50.924;11.604;2024-01-10T03:03:34;-12.40;99.90
4052;DHT22;2040;50.924;11.604;2024-01-10T03:06:00;-12.30;99.90
4052;DHT22;2040;50.924;11.604;2024-01-10T03:08:25;-12.10;99.90
4052;DHT22;2040;50.924;11.604;2024-01-10T03:10:51;-12.20;99.90
4052;DHT22;2040;50.924;11.604;2024-01-10T03:13:16;-12.50;99.90
4052;DHT22;2040;50.924;11.604;2024-01-10T03:15:42;-12.60;99.90
4052;DHT22;2040;50.924;11.604;2024-01-10T03:18:07;-12.60;99.90
4052;DHT22;2040;50.924;11.604;2024-01-10T03:20:33;-12.70;99.90
4052;DHT22;2040;50.924;11.604;2024-01-10T03:22:58;-12.70;99.90
4052;DHT22;2040;50.924;11.604;2024-01-10T03:25:24;-12.80;99.90
4052;DHT22;2040;50.924;11.604;2024-01-10T03:27:49;-12.70;99.90
4052;DHT22;2040;50.924;11.604;2024-01-10T03:30:15;-12.50;99.90
4052;DHT22;2040;50.924;11.604;2024-01-10T03:32:43;-12.50;99.90
4052;DHT22;2040;50.924;11.604;2024-01-10T03:35:09;-12.40;99.90
4052;DHT22;2040;50.924;11.604;2024-01-10T03:37:34;-12.40;99.90
4052;DHT22;2040;50.924;11.604;2024-01-10T03:40:00;-12.10;99.90
4052;DHT22;2040;50.924;11.604;2024-01-10T03:42:26;-12.10;99.90
4052;DHT22;2040;50.924;11.604;2024-01-10T03:44:51;-12.30;99.90
4052;DHT22;2040;50.924;11.604;2024-01-10T03:47:17;-12.20;99.90
4052;DHT22;2040;50.924;11.604;2024-01-10T03:49:42;-12.10;99.90
4052;DHT22;2040;50.924;11.604;2024-01-10T03:52:08;-12.00;99.90
4052;DHT22;2040;50.924;11.604;2024-01-10T03:54:33;-12.10;99.90
4052;DHT22;2040;50.924;11.604;2024-01-10T03:56:59;-12.20;99.90
4052;DHT22;2040;50.924;11.604;2024-01-10T03:59:24;-12.30;99.90
4052;DHT22;2040;50.924;11.604;2024-01-10T04:01:50;-12.60;99.90
4052;DHT22;2040;50.924;11.604;2024-01-10T04:04:15;-12.70;99.90
4052;DHT22;2040;50.924;11.604;2024-01-10T04:06:41;-12.80;99.90
4052;DHT22;2040;50.924;11.604;2024-01-10T04:09:07;-12.90;99.90
4052;DHT22;2040;50.924;11.604;2024-01-10T04:11:35;-13.00;99.90
4052;DHT22;2040;50.924;11.604;2024-01-10T04:14:01;-12.80;99.90
4052;DHT22;2040;50.924;11.604;2024-01-10T04:16:26;-12.90;99.90
4052;DHT22;2040;50.924;11.604;2024-01-10T04:18:53;-12.90;99.90
4052;DHT22;2040;50.924;11.604;2024-01-10T04:21:18;-13.00;99.90
4052;DHT22;2040;50.924;11.604;2024-01-10T04:23:44;-12.90;99.90
4052;DHT22;2040;50.924;11.604;2024-01-10T04:26:09;-12.90;99.90
4052;DHT22;2040;50.924;11.604;2024-01-10T04:28:35;-12.80;99.90
4052;DHT22;2040;50.924;11.604;2024-01-10T04:31:00;-12.80;99.90
4052;DHT22;2040;50.924;11.604;2024-01-10T04:33:26;-12.80;99.90
4052;DHT22;2040;50.924;11.604;2024-01-10T04:35:51;-12.80;99.90
4052;DHT22;2040;50.924;11.604;2024-01-10T04:38:17;-12.80;99.90
4052;DHT22;2040;50.924;11.604;2024-01-10T04:40:42;-12.80;99.90
4052;DHT22;2040;50.924;11.604;2024-01-10T04:43:08;-12.70;99.90
4052;DHT22;2040;50.924;11.604;2024-01-10T04:45:33;-12.70;99.90
4052;DHT22;2040;50.924;11.604;2024-01-10T04:47:59;-12.70;99.90
4052;DHT22;2040;50.924;11.604;2024-01-10T04:50:25;-12.70;99.90
4052;DHT22;2040;50.924;11.604;2024-01-10T04:52:50;-12.60;99.90
4052;DHT22;2040;50.924;11.604;2024-01-10T04:55:16;-12.40;99.90
4052;DHT22;2040;50.924;11.604;2024-01-10T04:57:41;-12.10;99.90
4052;DHT22;2040;50.924;11.604;2024-01-10T05:00:07;-12.10;99.90
4052;DHT22;2040;50.924;11.604;2024-01-10T05:02:33;-12.20;99.90
4052;DHT22;2040;50.924;11.604;2024-01-10T05:04:58;-12.20;99.90
4052;DHT22;2040;50.924;11.604;2024-01-10T05:07:24;-12.20;99.90
4052;DHT22;2040;50.924;11.604;2024-01-10T05:09:49;-12.20;99.90
4052;DHT22;2040;50.924;11.604;2024-01-10T05:12:15;-12.30;99.90
4052;DHT22;2040;50.924;11.604;2024-01-10T05:14:40;-12.30;99.90
4052;DHT22;2040;50.924;11.604;2024-01-10T05:17:06;-12.20;99.90
4052;DHT22;2040;50.924;11.604;2024-01-10T05:19:32;-12.40;99.90
4052;DHT22;2040;50.924;11.604;2024-01-10T05:21:57;-12.30;99.90
4052;DHT22;2040;50.924;11.604;2024-01-10T05:24:23;-12.40;99.90
4052;DHT22;2040;50.924;11.604;2024-01-10T05:26:49;-12.40;99.90
4052;DHT22;2040;50.924;11.604;2024-01-10T05:29:16;-12.50;99.90
4052;DHT22;2040;50.924;11.604;2024-01-10T05:31:43;-12.60;99.90
4052;DHT22;2040;50.924;11.604;2024-01-10T05:34:09;-12.60;99.90
4052;DHT22;2040;50.924;11.604;2024-01-10T05:36:34;-12.60;99.90
4052;DHT22;2040;50.924;11.604;2024-01-10T05:39:00;-12.50;99.90
4052;DHT22;2040;50.924;11.604;2024-01-10T05:41:25;-12.20;99.90
4052;DHT22;2040;50.924;11.604;2024-01-10T05:43:51;-12.20;99.90
4052;DHT22;2040;50.924;11.604;2024-01-10T05:46:16;-12.30;99.90
4052;DHT22;2040;50.924;11.604;2024-01-10T05:48:42;-12.30;99.90
4052;DHT22;2040;50.924;11.604;2024-01-10T05:51:07;-12.40;99.90
4052;DHT22;2040;50.924;11.604;2024-01-10T05:53:33;-12.40;99.90
4052;DHT22;2040;50.924;11.604;2024-01-10T05:55:58;-12.50;99.90
4052;DHT22;2040;50.924;11.604;2024-01-10T05:58:24;-12.50;99.90
4052;DHT22;2040;50.924;11.604;2024-01-10T06:00:49;-12.40;99.90
4052;DHT22;2040;50.924;11.604;2024-01-10T06:03:15;-12.40;99.90
4052;DHT22;2040;50.924;11.604;2024-01-10T06:05:40;-12.40;99.90
4052;DHT22;2040;50.924;11.604;2024-01-10T06:08:06;-12.40;99.90
4052;DHT22;2040;50.924;11.604;2024-01-10T06:10:32;-12.40;99.90
4052;DHT22;2040;50.924;11.604;2024-01-10T06:12:57;-12.20;99.90
4052;DHT22;2040;50.924;11.604;2024-01-10T06:15:24;-12.00;99.90
4052;DHT22;2040;50.924;11.604;2024-01-10T06:17:49;-11.90;99.90
4052;DHT22;2040;50.924;11.604;2024-01-10T06:20:15;-12.10;99.90
4052;DHT22;2040;50.924;11.604;2024-01-10T06:22:41;-12.10;99.90
4052;DHT22;2040;50.924;11.604;2024-01-10T06:25:07;-12.00;99.90
4052;DHT22;2040;50.924;11.604;2024-01-10T06:27:32;-12.10;99.90
4052;DHT22;2040;50.924;11.604;2024-01-10T06:29:58;-12.10;99.90
4052;DHT22;2040;50.924;11.604;2024-01-10T06:32:23;-12.20;99.90
4052;DHT22;2040;50.924;11.604;2024-01-10T06:34:49;-12.30;99.90
4052;DHT22;2040;50.924;11.604;2024-01-10T06:37:14;-12.40;99.90
4052;DHT22;2040;50.924;11.604;2024-01-10T06:39:41;-12.30;99.90
4052;DHT22;2040;50.924;11.604;2024-01-10T06:42:06;-12.00;99.90
4052;DHT22;2040;50.924;11.604;2024-01-10T06:44:33;-11.70;99.90
4052;DHT22;2040;50.924;11.604;2024-01-10T06:46:59;-11.60;99.90
4052;DHT22;2040;50.924;11.604;2024-01-10T06:49:24;-11.80;99.90
4052;DHT22;2040;50.924;11.604;2024-01-10T06:51:50;-11.90;99.90
4052;DHT22;2040;50.924;11.604;2024-01-10T06:54:15;-12.00;99.90
4052;DHT22;2040;50.924;11.604;2024-01-10T06:56:41;-12.00;99.90
4052;DHT22;2040;50.924;11.604;2024-01-10T06:59:06;-11.80;99.90
4052;DHT22;2040;50.924;11.604;2024-01-10T07:01:32;-11.70;99.90
4052;DHT22;2040;50.924;11.604;2024-01-10T07:03:58;-11.80;99.90
4052;DHT22;2040;50.924;11.604;2024-01-10T07:06:23;-11.90;99.90
4052;DHT22;2040;50.924;11.604;2024-01-10T07:08:50;-11.80;99.90
4052;DHT22;2040;50.924;11.604;2024-01-10T07:11:19;-11.80;99.90
4052;DHT22;2040;50.924;11.604;2024-01-10T07:13:45;-11.90;99.90
4052;DHT22;2040;50.924;11.604;2024-01-10T07:16:10;-12.10;99.90
4052;DHT22;2040;50.924;11.604;2024-01-10T07:18:36;-12.10;99.90
4052;DHT22;2040;50.924;11.604;2024-01-10T07:21:01;-12.00;99.90
4052;DHT22;2040;50.924;11.604;2024-01-10T07:23:27;-11.90;99.90
4052;DHT22;2040;50.924;11.604;2024-01-10T07:25:53;-11.80;99.90
4052;DHT22;2040;50.924;11.604;2024-01-10T07:28:21;-11.70;99.90
4052;DHT22;2040;50.924;11.604;2024-01-10T07:30:47;-11.60;99.90
4052;DHT22;2040;50.924;11.604;2024-01-10T07:33:13;-11.60;99.90
4052;DHT22;2040;50.924;11.604;2024-01-10T07:35:38;-11.50;99.90
4052;DHT22;2040;50.924;11.604;2024-01-10T07:38:05;-11.30;99.90
4052;DHT22;2040;50.924;11.604;2024-01-10T07:40:33;-11.20;99.90
4052;DHT22;2040;50.924;11.604;2024-01-10T07:42:58;-11.20;99.90
4052;DHT22;2040;50.924;11.604;2024-01-10T07:45:24;-11.10;99.90
4052;DHT22;2040;50.924;11.604;2024-01-10T07:47:50;-10.90;99.90
4052;DHT22;2040;50.924;11.604;2024-01-10T07:50:15;-11.00;99.90
4052;DHT22;2040;50.924;11.604;2024-01-10T07:52:41;-11.00;99.90
4052;DHT22;2040;50.924;11.604;2024-01-10T07:55:07;-11.00;99.90
4052;DHT22;2040;50.924;11.604;2024-01-10T07:57:35;-11.00;99.90
4052;DHT22;2040;50.924;11.604;2024-01-10T08:00:03;-11.00;99.90
4052;DHT22;2040;50.924;11.604;2024-01-10T08:02:29;-11.00;99.90
4052;DHT22;2040;50.924;11.604;2024-01-10T08:05:02;-10.90;99.90
4052;DHT22;2040;50.924;11.604;2024-01-10T08:07:34;-10.90;99.90
4052;DHT22;2040;50.924;11.604;2024-01-10T08:10:04;-10.70;99.90
4052;DHT22;2040;50.924;11.604;2024-01-10T08:12:29;-10.80;99.90
4052;DHT22;2040;50.924;11.604;2024-01-10T08:14:55;-10.70;99.90
4052;DHT22;2040;50.924;11.604;2024-01-10T08:17:20;-10.70;99.90
4052;DHT22;2040;50.924;11.604;2024-01-10T08:19:46;-10.70;99.90
4052;DHT22;2040;50.924;11.604;2024-01-10T08:22:11;-10.70;99.90
4052;DHT22;2040;50.924;11.604;2024-01-10T08:24:38;-10.70;99.90
4052;DHT22;2040;50.924;11.604;2024-01-10T08:27:04;-10.80;99.90
4052;DHT22;2040;50.924;11.604;2024-01-10T08:29:29;-10.80;99.90
4052;DHT22;2040;50.924;11.604;2024-01-10T08:31:57;-10.70;99.90
4052;DHT22;2040;50.924;11.604;2024-01-10T08:34:23;-10.80;99.90
4052;DHT22;2040;50.924;11.604;2024-01-10T08:36:48;-10.80;99.90
4052;DHT22;2040;50.924;11.604;2024-01-10T08:39:17;-10.70;99.90
4052;DHT22;2040;50.924;11.604;2024-01-10T08:41:43;-10.70;99.90
4052;DHT22;2040;50.924;11.604;2024-01-10T08:44:10;-10.70;99.90
4052;DHT22;2040;50.924;11.604;2024-01-10T08:46:35;-10.60;99.90
4052;DHT22;2040;50.924;11.604;2024-01-10T08:49:01;-10.50;99.90
4052;DHT22;2040;50.924;11.604;2024-01-10T08:51:27;-10.40;99.90
4052;DHT22;2040;50.924;11.604;2024-01-10T08:53:52;-10.30;99.90
4052;DHT22;2040;50.924;11.604;2024-01-10T08:56:18;-10.30;99.90
4052;DHT22;2040;50.924;11.604;2024-01-10T08:58:45;-10.40;99.90
4052;DHT22;2040;50.924;11.604;2024-01-10T09:01:11;-10.30;99.90
4052;DHT22;2040;50.924;11.604;2024-01-10T09:03:36;-10.30;99.90
4052;DHT22;2040;50.924;11.604;2024-01-10T09:06:03;-10.30;99.90
4052;DHT22;2040;50.924;11.604;2024-01-10T09:08:29;-10.30;99.90
4052;DHT22;2040;50.924;11.604;2024-01-10T09:10:55;-10.40;99.90
4052;DHT22;2040;50.924;11.604;2024-01-10T09:13:20;-10.30;99.90
4052;DHT22;2040;50.924;11.604;2024-01-10T09:15:46;-10.40;99.90
4052;DHT22;2040;50.924;11.604;2024-01-10T09:18:12;-10.30;99.90
4052;DHT22;2040;50.924;11.604;2024-01-10T09:20:37;-10.30;99.90
4052;DHT22;2040;50.924;11.604;2024-01-10T09:23:04;-10.20;99.90
4052;DHT22;2040;50.924;11.604;2024-01-10T09:25:29;-10.10;99.90
4052;DHT22;2040;50.924;11.604;2024-01-10T09:27:55;-9.90;99.90
4052;DHT22;2040;50.924;11.604;2024-01-10T09:30:20;-9.70;99.90
4052;DHT22;2040;50.924;11.604;2024-01-10T09:32:47;-10.00;99.90
4052;DHT22;2040;50.924;11.604;2024-01-10T09:35:13;-9.90;99.90
4052;DHT22;2040;50.924;11.604;2024-01-10T09:37:39;-10.00;99.90
4052;DHT22;2040;50.924;11.604;2024-01-10T09:40:05;-9.80;99.90
4052;DHT22;2040;50.924;11.604;2024-01-10T09:42:35;-9.80;99.90
4052;DHT22;2040;50.924;11.604;2024-01-10T09:45:03;-9.90;99.90
4052;DHT22;2040;50.924;11.604;2024-01-10T09:47:31;-9.70;99.90
4052;DHT22;2040;50.924;11.604;2024-01-10T09:49:57;-9.60;99.90
4052;DHT22;2040;50.924;11.604;2024-01-10T09:52:27;-9.70;99.90
4052;DHT22;2040;50.924;11.604;2024-01-10T09:54:57;-9.60;99.90
4052;DHT22;2040;50.924;11.604;2024-01-10T09:57:23;-9.50;99.90
4052;DHT22;2040;50.924;11.604;2024-01-10T09:59:50;-9.30;99.90
4052;DHT22;2040;50.924;11.604;2024-01-10T10:02:18;-9.30;99.90
4052;DHT22;2040;50.924;11.604;2024-01-10T10:05:02;-9.30;99.90
4052;DHT22;2040;50.924;11.604;2024-01-10T10:07:29;-9.30;99.90
4052;DHT22;2040;50.924;11.604;2024-01-10T10:09:54;-9.30;99.90
4052;DHT22;2040;50.924;11.604;2024-01-10T10:12:22;-9.10;99.90
4052;DHT22;2040;50.924;11.604;2024-01-10T10:14:49;-9.10;99.90
4052;DHT22;2040;50.924;11.604;2024-01-10T10:17:16;-8.90;99.90
4052;DHT22;2040;50.924;11.604;2024-01-10T10:19:42;-8.90;99.90
4052;DHT22;2040;50.924;11.604;2024-01-10T10:22:08;-8.90;99.90
4052;DHT22;2040;50.924;11.604;2024-01-10T10:24:34;-9.00;99.90
4052;DHT22;2040;50.924;11.604;2024-01-10T10:27:00;-9.00;99.90
4052;DHT22;2040;50.924;11.604;2024-01-10T10:29:26;-8.90;99.90
4052;DHT22;2040;50.924;11.604;2024-01-10T10:31:51;-8.90;99.90
4052;DHT22;2040;50.924;11.604;2024-01-10T10:34:21;-8.90;99.90
4052;DHT22;2040;50.924;11.604;2024-01-10T10:36:48;-8.60;99.90
4052;DHT22;2040;50.924;11.604;2024-01-10T10:39:16;-8.70;99.90
4052;DHT22;2040;50.924;11.604;2024-01-10T10:41:42;-8.60;99.90
4052;DHT22;2040;50.924;11.604;2024-01-10T10:44:09;-8.30;99.90
4052;DHT22;2040;50.924;11.604;2024-01-10T10:46:35;-8.30;99.90
4052;DHT22;2040;50.924;11.604;2024-01-10T10:49:09;-8.10;99.90
4052;DHT22;2040;50.924;11.604;2024-01-10T10:51:36;-7.90;99.90
4052;DHT22;2040;50.924;11.604;2024-01-10T10:54:04;-7.60;99.90
4052;DHT22;2040;50.924;11.604;2024-01-10T10:56:31;-7.50;99.90
4052;DHT22;2040;50.924;11.604;2024-01-10T10:58:58;-7.50;99.90
4052;DHT22;2040;50.924;11.604;2024-01-10T11:01:25;-7.50;99.90
4052;DHT22;2040;50.924;11.604;2024-01-10T11:03:52;-7.30;99.90
4052;DHT22;2040;50.924;11.604;2024-01-10T11:06:18;-7.30;99.90
4052;DHT22;2040;50.924;11.604;2024-01-10T11:09:02;-7.30;99.90
4052;DHT22;2040;50.924;11.604;2024-01-10T11:17:44;-6.70;99.90
4052;DHT22;2040;50.924;11.604;2024-01-10T11:25:49;-6.70;99.90
4052;DHT22;2040;50.924;11.604;2024-01-10T11:28:17;-6.70;99.90
4052;DHT22;2040;50.924;11.604;2024-01-10T11:30:50;-6.90;99.90
4052;DHT22;2040;50.924;11.604;2024-01-10T11:33:23;-6.90;99.90
4052;DHT22;2040;50.924;11.604;2024-01-10T11:36:10;-6.70;99.90
4052;DHT22;2040;50.924;11.604;2024-01-10T11:41:32;-6.30;99.90
4052;DHT22;2040;50.924;11.604;2024-01-10T11:46:40;-6.10;99.90
4052;DHT22;2040;50.924;11.604;2024-01-10T11:49:09;-6.10;99.90
4052;DHT22;2040;50.924;11.604;2024-01-10T11:51:37;-6.10;99.90
4052;DHT22;2040;50.924;11.604;2024-01-10T11:54:02;-6.10;99.90
4052;DHT22;2040;50.924;11.604;2024-01-10T11:56:38;-6.30;99.90
4052;DHT22;2040;50.924;11.604;2024-01-10T11:59:07;-6.40;99.90
4052;DHT22;2040;50.924;11.604;2024-01-10T12:01:40;-6.40;99.90
4052;DHT22;2040;50.924;11.604;2024-01-10T12:04:06;-6.30;99.90
4052;DHT22;2040;50.924;11.604;2024-01-10T12:06:34;-6.00;99.90
4052;DHT22;2040;50.924;11.604;2024-01-10T12:09:00;-6.00;99.90
4052;DHT22;2040;50.924;11.604;2024-01-10T12:11:33;-6.10;99.90
4052;DHT22;2040;50.924;11.604;2024-01-10T12:13:58;-6.10;99.90
4052;DHT22;2040;50.924;11.604;2024-01-10T12:16:24;-5.90;99.90
4052;DHT22;2040;50.924;11.604;2024-01-10T12:18:49;-5.80;99.90
4052;DHT22;2040;50.924;11.604;2024-01-10T12:21:16;-5.70;99.90
4052;DHT22;2040;50.924;11.604;2024-01-10T12:23:43;-5.50;99.90
4052;DHT22;2040;50.924;11.604;2024-01-10T12:26:10;-5.60;99.90
4052;DHT22;2040;50.924;11.604;2024-01-10T12:28:39;-5.50;99.90
4052;DHT22;2040;50.924;11.604;2024-01-10T12:31:05;-5.50;99.90
4052;DHT22;2040;50.924;11.604;2024-01-10T12:33:34;-5.30;99.90
4052;DHT22;2040;50.924;11.604;2024-01-10T12:36:10;-5.20;99.90
4052;DHT22;2040;50.924;11.604;2024-01-10T12:38:39;-5.20;99.90
4052;DHT22;2040;50.924;11.604;2024-01-10T12:41:05;-5.20;99.90
4052;DHT22;2040;50.924;11.604;2024-01-10T12:43:34;-5.10;99.90
4052;DHT22;2040;50.924;11.604;2024-01-10T12:46:06;-5.10;99.90
4052;DHT22;2040;50.924;11.604;2024-01-10T12:48:31;-4.90;99.90
4052;DHT22;2040;50.924;11.604;2024-01-10T12:50:58;-4.90;99.90
4052;DHT22;2040;50.924;11.604;2024-01-10T12:53:34;-5.10;99.90
4052;DHT22;2040;50.924;11.604;2024-01-10T12:56:00;-5.20;99.90
4052;DHT22;2040;50.924;11.604;2024-01-10T12:58:25;-5.20;99.90
4052;DHT22;2040;50.924;11.604;2024-01-10T13:00:51;-5.20;99.90
4052;DHT22;2040;50.924;11.604;2024-01-10T13:03:17;-5.10;99.90
4052;DHT22;2040;50.924;11.604;2024-01-10T13:05:43;-4.80;99.90
4052;DHT22;2040;50.924;11.604;2024-01-10T13:08:09;-4.60;99.90
4052;DHT22;2040;50.924;11.604;2024-01-10T13:10:37;-4.60;99.90
4052;DHT22;2040;50.924;11.604;2024-01-10T13:13:03;-4.50;99.90
4052;DHT22;2040;50.924;11.604;2024-01-10T13:15:28;-4.70;99.90
4052;DHT22;2040;50.924;11.604;2024-01-10T13:17:54;-4.70;99.90
4052;DHT22;2040;50.924;11.604;2024-01-10T13:20:19;-4.80;99.90
4052;DHT22;2040;50.924;11.604;2024-01-10T13:22:45;-4.80;99.90
4052;DHT22;2040;50.924;11.604;2024-01-10T13:25:11;-4.90;99.90
4052;DHT22;2040;50.924;11.604;2024-01-10T13:27:37;-4.80;99.90
4052;DHT22;2040;50.924;11.604;2024-01-10T13:30:03;-4.70;99.90
4052;DHT22;2040;50.924;11.604;2024-01-10T13:32:31;-4.60;99.90
4052;DHT22;2040;50.924;11.604;2024-01-10T13:34:56;-4.50;99.90
4052;DHT22;2040;50.924;11.604;2024-01-10T13:37:22;-4.50;99.90
4052;DHT22;2040;50.924;11.604;2024-01-10T13:39:48;-4.60;99.90
4052;DHT22;2040;50.924;11.604;2024-01-10T13:42:14;-4.70;99.90
4052;DHT22;2040;50.924;11.604;2024-01-10T13:44:40;-4.70;99.90
4052;DHT22;2040;50.924;11.604;2024-01-10T13:47:06;-4.70;99.90
4052;DHT22;2040;50.924;11.604;2024-01-10T13:49:31;-4.60;99.90
4052;DHT22;2040;50.924;11.604;2024-01-10T13:51:57;-4.70;99.90
4052;DHT22;2040;50.924;11.604;2024-01-10T13:54:22;-4.60;99.90
4052;DHT22;2040;50.924;11.604;2024-01-10T13:56:48;-4.60;99.90
4052;DHT22;2040;50.924;11.604;2024-01-10T13:59:13;-4.60;99.90
4052;DHT22;2040;50.924;11.604;2024-01-10T14:01:39;-4.50;99.90
4052;DHT22;2040;50.924;11.604;2024-01-10T14:04:05;-4.50;99.90
4052;DHT22;2040;50.924;11.604;2024-01-10T14:06:31;-4.50;99.90
4052;DHT22;2040;50.924;11.604;2024-01-10T14:08:57;-4.60;99.90
4052;DHT22;2040;50.924;11.604;2024-01-10T14:11:23;-4.60;99.90
4052;DHT22;2040;50.924;11.604;2024-01-10T14:13:49;-4.60;99.90
4052;DHT22;2040;50.924;11.604;2024-01-10T14:16:15;-4.60;99.90
4052;DHT22;2040;50.924;11.604;2024-01-10T14:18:40;-4.50;99.90
4052;DHT22;2040;50.924;11.604;2024-01-10T14:21:06;-4.50;99.90
4052;DHT22;2040;50.924;11.604;2024-01-10T14:23:32;-4.60;99.90
4052;DHT22;2040;50.924;11.604;2024-01-10T14:25:59;-4.70;99.90
4052;DHT22;2040;50.924;11.604;2024-01-10T14:28:24;-4.50;99.90
4052;DHT22;2040;50.924;11.604;2024-01-10T14:30:50;-4.70;99.90
4052;DHT22;2040;50.924;11.604;2024-01-10T14:33:15;-4.90;99.90
4052;DHT22;2040;50.924;11.604;2024-01-10T14:35:41;-4.90;99.90
4052;DHT22;2040;50.924;11.604;2024-01-10T14:38:06;-5.10;99.90
4052;DHT22;2040;50.924;11.604;2024-01-10T14:40:33;-5.00;99.90
4052;DHT22;2040;50.924;11.604;2024-01-10T14:42:58;-5.00;99.90
4052;DHT22;2040;50.924;11.604;2024-01-10T14:45:24;-5.20;99.90
4052;DHT22;2040;50.924;11.604;2024-01-10T14:47:50;-5.20;99.90
4052;DHT22;2040;50.924;11.604;2024-01-10T14:50:16;-5.10;99.90
4052;DHT22;2040;50.924;11.604;2024-01-10T14:52:42;-5.20;99.90
4052;DHT22;2040;50.924;11.604;2024-01-10T14:55:08;-5.00;99.90
4052;DHT22;2040;50.924;11.604;2024-01-10T14:57:33;-5.20;99.90
4052;DHT22;2040;50.924;11.604;2024-01-10T14:59:59;-5.30;99.90
4052;DHT22;2040;50.924;11.604;2024-01-10T15:02:25;-5.40;99.90
4052;DHT22;2040;50.924;11.604;2024-01-10T15:04:51;-5.20;99.90
4052;DHT22;2040;50.924;11.604;2024-01-10T15:07:16;-5.50;99.90
4052;DHT22;2040;50.924;11.604;2024-01-10T15:09:43;-5.70;99.90
4052;DHT22;2040;50.924;11.604;2024-01-10T15:12:09;-6.00;99.90
4052;DHT22;2040;50.924;11.604;2024-01-10T15:14:35;-6.20;99.90
4052;DHT22;2040;50.924;11.604;2024-01-10T15:17:07;-6.40;99.90
4052;DHT22;2040;50.924;11.604;2024-01-10T15:19:34;-6.60;99.90
4052;DHT22;2040;50.924;11.604;2024-01-10T15:22:00;-6.70;99.90
4052;DHT22;2040;50.924;11.604;2024-01-10T15:24:27;-6.80;99.90
4052;DHT22;2040;50.924;11.604;2024-01-10T15:26:53;-6.90;99.90
4052;DHT22;2040;50.924;11.604;2024-01-10T15:29:19;-7.00;99.90
4052;DHT22;2040;50.924;11.604;2024-01-10T15:31:45;-7.10;99.90
4052;DHT22;2040;50.924;11.604;2024-01-10T15:34:11;-7.10;99.90
4052;DHT22;2040;50.924;11.604;2024-01-10T15:36:40;-7.20;99.90
4052;DHT22;2040;50.924;11.604;2024-01-10T15:39:06;-7.30;99.90
4052;DHT22;2040;50.924;11.604;2024-01-10T15:41:32;-7.30;99.90
4052;DHT22;2040;50.924;11.604;2024-01-10T15:43:57;-7.40;99.90
4052;DHT22;2040;50.924;11.604;2024-01-10T15:46:23;-7.50;99.90
4052;DHT22;2040;50.924;11.604;2024-01-10T15:48:49;-7.50;99.90